Terminal Aerodrome Forecast
Issued by NWS

Home | Current Version | Previous Version | Text Only | Print | Product List | Glossary On
Versions: 1 2 3 4 5 6 7 8 9 10 11 12
000
FTUS41 KBTV 041136
TAFSLK
TAF
KSLK 041136Z 0412/0512 VRB03KT P6SM FEW250
     FM041400 23014G20KT P6SM FEW060 SCT250
     FM041700 23017G27KT P6SM FEW070 SCT200
     FM042300 23010G18KT P6SM OVC060
     FM050400 24009KT 6SM -RA OVC035=

USA.gov is the U.S. government's official web portal to all federal, state and local government web resources and services.